Hovedside
METAR-TAF:

METAR-TAF

Lufthavner :

Koror, Babeldaob, Palau

Roman Tmetuchl internasjonale lufthavn

breddegrad: 07-22N, lengdegrad: 134-32E, høyde over havet: 54 m

Gjeldene værobservasjon

Denne rapporten ble laget for 43 minutter siden, klokken 17:50 UTC
Flau vind
Temperatur 24°C
Luftfuktighet 94%
Trykk 1007 hPa
Sikt: 22.5 km
Få skyer i en høyde av 1600 ft
Spredte skyer i en høyde av 12000 ft
Brutte skyer i en høyde av 30000 ft

METAR: PTRO 241750Z 00000KT 14SM FEW016 SCT120 BKN300 24/23 A2973

Tid: 03:33 (18:33 UTC)

Varsel

Denne rapporten ble laget for 55 minutter siden, klokken 17:38 UTC
Varsel gyldig fra 24. klokken 18 UTC til 25. klokken 18 UTC
Vind 5 kt fra skiftende retning
Sikt: 10 km
Spredte skyer i en høyde av 1600 ft
Spredte skyer i en høyde av 12000 ft
regnbyger i nærheten

TAF: PTRO 241738Z 2418/2518 VRB05KT P6SM VCSH SCT016 SCT120

Værobservasjoner og værvarsel for over 4000 flyplasser (METAR- og TAF-rapporter).

Tilgjengelige stasjoner er representert av de røde og gule prikkene på kartet.

Hold musepekeren over prikken for å se navnet på stasjonen.

Klikk så for å se værobservasjoner og -varsler.

For å forandre kartet kan du klikke på den grønne knappen med svart kryss for å zoome inn, på den grønne knappen med strek for å zoome ut, eller på de grønne pilene for å se tilstøtende kart.


METAR-TAF: